sensor_id;sensor_type;location;lat;lon;timestamp;P1;durP1;ratioP1;P2;durP2;ratioP2
23115;SDS011;11727;52.134;5.052;2022-09-24T00:05:26;20.25;;;9.15;;
23115;SDS011;11727;52.134;5.052;2022-09-24T00:15:43;21.25;;;10.10;;
23115;SDS011;11727;52.134;5.052;2022-09-24T00:18:11;16.67;;;9.48;;
23115;SDS011;11727;52.134;5.052;2022-09-24T00:20:37;16.70;;;8.80;;
23115;SDS011;11727;52.134;5.052;2022-09-24T00:23:10;20.98;;;9.68;;
23115;SDS011;11727;52.134;5.052;2022-09-24T00:25:42;21.10;;;10.50;;
23115;SDS011;11727;52.134;5.052;2022-09-24T00:28:27;16.73;;;8.52;;
23115;SDS011;11727;52.134;5.052;2022-09-24T00:30:54;15.10;;;8.65;;
23115;SDS011;11727;52.134;5.052;2022-09-24T00:33:25;17.75;;;7.90;;
23115;SDS011;11727;52.134;5.052;2022-09-24T00:36:03;16.45;;;8.60;;
23115;SDS011;11727;52.134;5.052;2022-09-24T00:38:39;15.50;;;8.02;;
23115;SDS011;11727;52.134;5.052;2022-09-24T00:41:04;21.23;;;10.15;;
23115;SDS011;11727;52.134;5.052;2022-09-24T00:43:34;19.08;;;8.88;;
23115;SDS011;11727;52.134;5.052;2022-09-24T00:49:10;16.30;;;8.80;;
23115;SDS011;11727;52.134;5.052;2022-09-24T00:54:24;13.30;;;7.75;;
23115;SDS011;11727;52.134;5.052;2022-09-24T00:56:52;15.95;;;8.55;;
23115;SDS011;11727;52.134;5.052;2022-09-24T00:59:22;17.48;;;8.48;;
23115;SDS011;11727;52.134;5.052;2022-09-24T01:01:49;20.17;;;8.15;;
23115;SDS011;11727;52.134;5.052;2022-09-24T01:04:18;15.23;;;7.95;;
23115;SDS011;11727;52.134;5.052;2022-09-24T01:06:47;17.67;;;8.73;;
23115;SDS011;11727;52.134;5.052;2022-09-24T01:09:13;17.27;;;8.77;;
23115;SDS011;11727;52.134;5.052;2022-09-24T01:14:28;16.75;;;7.82;;
23115;SDS011;11727;52.134;5.052;2022-09-24T01:17:13;18.13;;;9.15;;
23115;SDS011;11727;52.134;5.052;2022-09-24T01:30:54;17.48;;;8.95;;
23115;SDS011;11727;52.134;5.052;2022-09-24T01:33:26;19.92;;;9.50;;
23115;SDS011;11727;52.134;5.052;2022-09-24T01:35:55;18.08;;;10.32;;
23115;SDS011;11727;52.134;5.052;2022-09-24T01:38:25;16.88;;;9.32;;
23115;SDS011;11727;52.134;5.052;2022-09-24T01:40:54;16.77;;;8.77;;
23115;SDS011;11727;52.134;5.052;2022-09-24T01:43:27;17.75;;;9.68;;
23115;SDS011;11727;52.134;5.052;2022-09-24T01:45:55;19.55;;;10.35;;
23115;SDS011;11727;52.134;5.052;2022-09-24T01:48:26;23.45;;;9.75;;
23115;SDS011;11727;52.134;5.052;2022-09-24T01:50:55;22.98;;;10.73;;
23115;SDS011;11727;52.134;5.052;2022-09-24T01:53:31;20.70;;;11.02;;
23115;SDS011;11727;52.134;5.052;2022-09-24T01:56:04;20.15;;;10.13;;
23115;SDS011;11727;52.134;5.052;2022-09-24T01:58:49;26.02;;;11.68;;
23115;SDS011;11727;52.134;5.052;2022-09-24T02:01:25;26.40;;;11.32;;
23115;SDS011;11727;52.134;5.052;2022-09-24T02:03:56;19.85;;;10.45;;
23115;SDS011;11727;52.134;5.052;2022-09-24T02:06:28;25.80;;;10.63;;
23115;SDS011;11727;52.134;5.052;2022-09-24T02:09:02;22.90;;;11.55;;
23115;SDS011;11727;52.134;5.052;2022-09-24T02:11:28;23.80;;;12.05;;
23115;SDS011;11727;52.134;5.052;2022-09-24T02:16:32;23.75;;;10.15;;
23115;SDS011;11727;52.134;5.052;2022-09-24T02:19:04;19.35;;;10.63;;
23115;SDS011;11727;52.134;5.052;2022-09-24T02:21:31;21.73;;;11.07;;
23115;SDS011;11727;52.134;5.052;2022-09-24T02:24:02;19.42;;;11.23;;
23115;SDS011;11727;52.134;5.052;2022-09-24T02:26:31;22.02;;;9.95;;
23115;SDS011;11727;52.134;5.052;2022-09-24T02:28:56;19.83;;;10.73;;
23115;SDS011;11727;52.134;5.052;2022-09-24T02:31:24;22.38;;;10.43;;
23115;SDS011;11727;52.134;5.052;2022-09-24T02:33:56;19.08;;;10.50;;
23115;SDS011;11727;52.134;5.052;2022-09-24T02:36:45;22.10;;;10.13;;
23115;SDS011;11727;52.134;5.052;2022-09-24T02:39:23;19.35;;;9.60;;
23115;SDS011;11727;52.134;5.052;2022-09-24T02:41:49;18.30;;;10.13;;
23115;SDS011;11727;52.134;5.052;2022-09-24T02:44:16;20.15;;;10.05;;
23115;SDS011;11727;52.134;5.052;2022-09-24T02:46:43;22.25;;;11.00;;
23115;SDS011;11727;52.134;5.052;2022-09-24T02:49:09;20.25;;;10.48;;
23115;SDS011;11727;52.134;5.052;2022-09-24T02:51:35;20.88;;;9.77;;
23115;SDS011;11727;52.134;5.052;2022-09-24T02:54:02;21.80;;;9.45;;
23115;SDS011;11727;52.134;5.052;2022-09-24T02:56:28;19.75;;;10.63;;
23115;SDS011;11727;52.134;5.052;2022-09-24T02:58:54;20.42;;;10.15;;
23115;SDS011;11727;52.134;5.052;2022-09-24T03:01:20;20.05;;;10.55;;
23115;SDS011;11727;52.134;5.052;2022-09-24T03:03:47;23.15;;;11.40;;
23115;SDS011;11727;52.134;5.052;2022-09-24T03:06:13;19.48;;;9.88;;
23115;SDS011;11727;52.134;5.052;2022-09-24T03:08:39;18.35;;;9.73;;
23115;SDS011;11727;52.134;5.052;2022-09-24T03:11:06;20.60;;;10.93;;
23115;SDS011;11727;52.134;5.052;2022-09-24T03:13:36;23.02;;;10.57;;
23115;SDS011;11727;52.134;5.052;2022-09-24T03:16:02;17.35;;;8.35;;
23115;SDS011;11727;52.134;5.052;2022-09-24T03:18:29;19.60;;;9.90;;
23115;SDS011;11727;52.134;5.052;2022-09-24T03:20:58;19.88;;;9.50;;
23115;SDS011;11727;52.134;5.052;2022-09-24T03:23:24;15.32;;;8.40;;
23115;SDS011;11727;52.134;5.052;2022-09-24T03:25:50;18.13;;;8.93;;
23115;SDS011;11727;52.134;5.052;2022-09-24T03:28:16;22.45;;;9.82;;
23115;SDS011;11727;52.134;5.052;2022-09-24T03:30:42;20.70;;;9.88;;
23115;SDS011;11727;52.134;5.052;2022-09-24T03:33:24;18.67;;;9.75;;
23115;SDS011;11727;52.134;5.052;2022-09-24T03:36:04;18.33;;;10.02;;
23115;SDS011;11727;52.134;5.052;2022-09-24T03:38:38;27.15;;;9.80;;
23115;SDS011;11727;52.134;5.052;2022-09-24T03:41:05;19.77;;;9.65;;
23115;SDS011;11727;52.134;5.052;2022-09-24T03:43:32;20.45;;;9.50;;
23115;SDS011;11727;52.134;5.052;2022-09-24T03:45:58;22.58;;;10.15;;
23115;SDS011;11727;52.134;5.052;2022-09-24T03:48:24;23.23;;;11.07;;
23115;SDS011;11727;52.134;5.052;2022-09-24T03:50:50;21.88;;;10.02;;
23115;SDS011;11727;52.134;5.052;2022-09-24T03:53:17;22.02;;;10.77;;
23115;SDS011;11727;52.134;5.052;2022-09-24T03:55:44;21.00;;;10.77;;
23115;SDS011;11727;52.134;5.052;2022-09-24T03:58:17;26.00;;;10.70;;
23115;SDS011;11727;52.134;5.052;2022-09-24T04:00:42;19.90;;;10.38;;
23115;SDS011;11727;52.134;5.052;2022-09-24T04:03:08;24.73;;;10.85;;
23115;SDS011;11727;52.134;5.052;2022-09-24T04:05:34;22.25;;;10.02;;
23115;SDS011;11727;52.134;5.052;2022-09-24T04:08:00;24.50;;;11.85;;
23115;SDS011;11727;52.134;5.052;2022-09-24T04:10:26;23.35;;;10.48;;
23115;SDS011;11727;52.134;5.052;2022-09-24T04:12:52;22.90;;;9.98;;
23115;SDS011;11727;52.134;5.052;2022-09-24T04:15:18;22.90;;;9.80;;
23115;SDS011;11727;52.134;5.052;2022-09-24T04:17:57;24.65;;;10.95;;
23115;SDS011;11727;52.134;5.052;2022-09-24T04:20:24;26.08;;;10.82;;
23115;SDS011;11727;52.134;5.052;2022-09-24T04:22:55;26.20;;;13.07;;
23115;SDS011;11727;52.134;5.052;2022-09-24T04:25:22;22.60;;;11.57;;
23115;SDS011;11727;52.134;5.052;2022-09-24T04:27:56;22.35;;;11.30;;
23115;SDS011;11727;52.134;5.052;2022-09-24T04:30:23;27.90;;;12.55;;
23115;SDS011;11727;52.134;5.052;2022-09-24T04:32:50;23.80;;;10.20;;
23115;SDS011;11727;52.134;5.052;2022-09-24T04:35:16;26.58;;;11.77;;
23115;SDS011;11727;52.134;5.052;2022-09-24T04:37:43;25.23;;;11.75;;
23115;SDS011;11727;52.134;5.052;2022-09-24T04:40:09;27.67;;;11.18;;
23115;SDS011;11727;52.134;5.052;2022-09-24T04:42:39;23.07;;;11.03;;
23115;SDS011;11727;52.134;5.052;2022-09-24T04:45:06;27.00;;;12.40;;
23115;SDS011;11727;52.134;5.052;2022-09-24T04:47:34;22.48;;;11.65;;
23115;SDS011;11727;52.134;5.052;2022-09-24T04:50:00;26.73;;;12.37;;
23115;SDS011;11727;52.134;5.052;2022-09-24T04:52:28;26.63;;;11.63;;
23115;SDS011;11727;52.134;5.052;2022-09-24T04:54:56;23.48;;;11.50;;
23115;SDS011;11727;52.134;5.052;2022-09-24T04:57:22;24.33;;;11.30;;
23115;SDS011;11727;52.134;5.052;2022-09-24T04:59:48;19.35;;;10.60;;
23115;SDS011;11727;52.134;5.052;2022-09-24T05:02:14;23.98;;;11.23;;
23115;SDS011;11727;52.134;5.052;2022-09-24T05:04:40;19.75;;;10.27;;
23115;SDS011;11727;52.134;5.052;2022-09-24T05:07:05;22.88;;;10.52;;
23115;SDS011;11727;52.134;5.052;2022-09-24T05:09:31;16.88;;;9.60;;
23115;SDS011;11727;52.134;5.052;2022-09-24T05:11:59;21.20;;;9.32;;
23115;SDS011;11727;52.134;5.052;2022-09-24T05:14:26;20.73;;;10.02;;
23115;SDS011;11727;52.134;5.052;2022-09-24T05:16:52;16.80;;;9.07;;
23115;SDS011;11727;52.134;5.052;2022-09-24T05:19:17;15.80;;;9.00;;
23115;SDS011;11727;52.134;5.052;2022-09-24T05:21:43;16.88;;;9.15;;
23115;SDS011;11727;52.134;5.052;2022-09-24T05:24:10;13.10;;;7.13;;
23115;SDS011;11727;52.134;5.052;2022-09-24T05:26:35;21.45;;;9.70;;
23115;SDS011;11727;52.134;5.052;2022-09-24T05:29:20;21.42;;;8.75;;
23115;SDS011;11727;52.134;5.052;2022-09-24T05:31:45;17.15;;;9.05;;
23115;SDS011;11727;52.134;5.052;2022-09-24T05:34:11;15.93;;;7.65;;
23115;SDS011;11727;52.134;5.052;2022-09-24T05:36:38;12.73;;;6.90;;
23115;SDS011;11727;52.134;5.052;2022-09-24T05:39:04;18.70;;;7.35;;
23115;SDS011;11727;52.134;5.052;2022-09-24T05:41:30;19.70;;;8.55;;
23115;SDS011;11727;52.134;5.052;2022-09-24T05:43:56;18.75;;;8.93;;
23115;SDS011;11727;52.134;5.052;2022-09-24T05:46:22;15.88;;;8.90;;
23115;SDS011;11727;52.134;5.052;2022-09-24T05:48:48;16.27;;;8.23;;
23115;SDS011;11727;52.134;5.052;2022-09-24T05:51:13;13.40;;;7.45;;
23115;SDS011;11727;52.134;5.052;2022-09-24T05:53:39;14.70;;;7.82;;
23115;SDS011;11727;52.134;5.052;2022-09-24T05:56:05;14.75;;;8.35;;
23115;SDS011;11727;52.134;5.052;2022-09-24T05:58:31;17.83;;;7.93;;
23115;SDS011;11727;52.134;5.052;2022-09-24T06:00:59;16.75;;;8.48;;
23115;SDS011;11727;52.134;5.052;2022-09-24T06:03:31;14.70;;;7.70;;
23115;SDS011;11727;52.134;5.052;2022-09-24T06:05:56;16.20;;;7.53;;
23115;SDS011;11727;52.134;5.052;2022-09-24T06:08:26;13.77;;;7.25;;
23115;SDS011;11727;52.134;5.052;2022-09-24T06:10:57;13.50;;;6.78;;
23115;SDS011;11727;52.134;5.052;2022-09-24T06:13:24;15.20;;;8.32;;
23115;SDS011;11727;52.134;5.052;2022-09-24T06:15:49;20.20;;;7.82;;
23115;SDS011;11727;52.134;5.052;2022-09-24T06:18:15;11.70;;;7.00;;
23115;SDS011;11727;52.134;5.052;2022-09-24T06:20:41;17.05;;;7.82;;
23115;SDS011;11727;52.134;5.052;2022-09-24T06:23:06;16.90;;;8.45;;
23115;SDS011;11727;52.134;5.052;2022-09-24T06:25:32;18.83;;;8.73;;
23115;SDS011;11727;52.134;5.052;2022-09-24T06:27:58;14.70;;;7.63;;
23115;SDS011;11727;52.134;5.052;2022-09-24T06:33:01;16.33;;;8.43;;
23115;SDS011;11727;52.134;5.052;2022-09-24T06:35:29;15.77;;;8.32;;
23115;SDS011;11727;52.134;5.052;2022-09-24T06:38:05;15.55;;;7.10;;
23115;SDS011;11727;52.134;5.052;2022-09-24T06:40:31;17.00;;;8.23;;
23115;SDS011;11727;52.134;5.052;2022-09-24T06:42:57;14.45;;;7.78;;
23115;SDS011;11727;52.134;5.052;2022-09-24T06:45:23;16.17;;;7.95;;
23115;SDS011;11727;52.134;5.052;2022-09-24T06:47:52;19.88;;;9.07;;
23115;SDS011;11727;52.134;5.052;2022-09-24T06:50:19;15.32;;;7.30;;
23115;SDS011;11727;52.134;5.052;2022-09-24T06:52:46;13.50;;;6.40;;
23115;SDS011;11727;52.134;5.052;2022-09-24T06:55:12;18.60;;;8.48;;
23115;SDS011;11727;52.134;5.052;2022-09-24T06:57:38;15.85;;;8.52;;
23115;SDS011;11727;52.134;5.052;2022-09-24T07:00:04;16.50;;;7.63;;
23115;SDS011;11727;52.134;5.052;2022-09-24T07:02:30;19.85;;;9.05;;
23115;SDS011;11727;52.134;5.052;2022-09-24T07:04:55;16.33;;;8.32;;
23115;SDS011;11727;52.134;5.052;2022-09-24T07:07:21;18.15;;;9.88;;
23115;SDS011;11727;52.134;5.052;2022-09-24T07:10:03;15.82;;;8.27;;
23115;SDS011;11727;52.134;5.052;2022-09-24T07:12:30;15.93;;;8.15;;
23115;SDS011;11727;52.134;5.052;2022-09-24T07:14:57;16.45;;;8.35;;
23115;SDS011;11727;52.134;5.052;2022-09-24T07:17:24;22.30;;;9.25;;
23115;SDS011;11727;52.134;5.052;2022-09-24T07:19:51;22.23;;;9.43;;
23115;SDS011;11727;52.134;5.052;2022-09-24T07:22:17;15.65;;;8.05;;
23115;SDS011;11727;52.134;5.052;2022-09-24T07:24:43;17.15;;;8.30;;
23115;SDS011;11727;52.134;5.052;2022-09-24T07:27:09;16.15;;;7.15;;
23115;SDS011;11727;52.134;5.052;2022-09-24T07:29:34;17.23;;;8.00;;
23115;SDS011;11727;52.134;5.052;2022-09-24T07:32:00;15.88;;;8.38;;
23115;SDS011;11727;52.134;5.052;2022-09-24T07:34:27;18.63;;;9.45;;
23115;SDS011;11727;52.134;5.052;2022-09-24T07:36:53;18.05;;;8.82;;
23115;SDS011;11727;52.134;5.052;2022-09-24T07:39:20;18.17;;;8.32;;
23115;SDS011;11727;52.134;5.052;2022-09-24T07:41:46;14.43;;;7.32;;
23115;SDS011;11727;52.134;5.052;2022-09-24T07:44:12;16.63;;;8.65;;
23115;SDS011;11727;52.134;5.052;2022-09-24T07:46:37;16.50;;;9.05;;
23115;SDS011;11727;52.134;5.052;2022-09-24T07:49:03;16.90;;;8.40;;
23115;SDS011;11727;52.134;5.052;2022-09-24T07:51:29;16.33;;;8.40;;
23115;SDS011;11727;52.134;5.052;2022-09-24T07:53:55;9.43;;;4.55;;
23115;SDS011;11727;52.134;5.052;2022-09-24T07:56:22;13.60;;;5.55;;
23115;SDS011;11727;52.134;5.052;2022-09-24T07:58:49;14.00;;;7.10;;
23115;SDS011;11727;52.134;5.052;2022-09-24T08:01:17;12.90;;;6.88;;
23115;SDS011;11727;52.134;5.052;2022-09-24T08:03:44;9.85;;;4.88;;
23115;SDS011;11727;52.134;5.052;2022-09-24T08:06:10;15.45;;;6.32;;
23115;SDS011;11727;52.134;5.052;2022-09-24T08:08:36;11.15;;;5.57;;
23115;SDS011;11727;52.134;5.052;2022-09-24T08:11:06;15.82;;;4.97;;
23115;SDS011;11727;52.134;5.052;2022-09-24T08:13:33;9.50;;;4.50;;
23115;SDS011;11727;52.134;5.052;2022-09-24T08:15:59;14.50;;;6.05;;
23115;SDS011;11727;52.134;5.052;2022-09-24T08:18:26;10.75;;;5.50;;
23115;SDS011;11727;52.134;5.052;2022-09-24T08:20:53;17.00;;;5.50;;
23115;SDS011;11727;52.134;5.052;2022-09-24T08:23:19;11.75;;;5.45;;
23115;SDS011;11727;52.134;5.052;2022-09-24T08:25:48;11.43;;;5.75;;
23115;SDS011;11727;52.134;5.052;2022-09-24T08:28:13;10.52;;;5.20;;
23115;SDS011;11727;52.134;5.052;2022-09-24T08:30:43;13.13;;;5.18;;
23115;SDS011;11727;52.134;5.052;2022-09-24T08:33:09;11.90;;;4.47;;
23115;SDS011;11727;52.134;5.052;2022-09-24T08:35:36;11.23;;;3.90;;
23115;SDS011;11727;52.134;5.052;2022-09-24T08:38:05;7.68;;;4.15;;
23115;SDS011;11727;52.134;5.052;2022-09-24T08:40:38;8.57;;;4.10;;
23115;SDS011;11727;52.134;5.052;2022-09-24T08:43:18;6.80;;;2.90;;
23115;SDS011;11727;52.134;5.052;2022-09-24T08:46:13;5.65;;;3.13;;
23115;SDS011;11727;52.134;5.052;2022-09-24T08:49:04;6.38;;;2.78;;
23115;SDS011;11727;52.134;5.052;2022-09-24T08:51:35;5.82;;;2.95;;
23115;SDS011;11727;52.134;5.052;2022-09-24T08:54:10;4.95;;;1.92;;
23115;SDS011;11727;52.134;5.052;2022-09-24T08:56:40;4.32;;;1.58;;
23115;SDS011;11727;52.134;5.052;2022-09-24T09:04:27;2.90;;;1.17;;
23115;SDS011;11727;52.134;5.052;2022-09-24T09:07:41;4.10;;;0.90;;
23115;SDS011;11727;52.134;5.052;2022-09-24T09:10:22;6.10;;;1.10;;
23115;SDS011;11727;52.134;5.052;2022-09-24T09:12:54;1.10;;;0.43;;
23115;SDS011;11727;52.134;5.052;2022-09-24T09:15:27;0.47;;;0.38;;
23115;SDS011;11727;52.134;5.052;2022-09-24T09:20:39;6.72;;;0.70;;
23115;SDS011;11727;52.134;5.052;2022-09-24T09:23:11;2.17;;;0.50;;
23115;SDS011;11727;52.134;5.052;2022-09-24T09:25:41;2.65;;;0.40;;
23115;SDS011;11727;52.134;5.052;2022-09-24T09:28:15;2.30;;;0.30;;
23115;SDS011;11727;52.134;5.052;2022-09-24T09:33:32;2.20;;;0.60;;
23115;SDS011;11727;52.134;5.052;2022-09-24T09:39:00;5.78;;;0.52;;
23115;SDS011;11727;52.134;5.052;2022-09-24T09:41:40;0.80;;;0.50;;
23115;SDS011;11727;52.134;5.052;2022-09-24T09:44:15;1.35;;;0.77;;
23115;SDS011;11727;52.134;5.052;2022-09-24T09:46:48;3.67;;;0.60;;
23115;SDS011;11727;52.134;5.052;2022-09-24T09:49:22;3.67;;;0.63;;
23115;SDS011;11727;52.134;5.052;2022-09-24T09:51:55;0.90;;;0.40;;
23115;SDS011;11727;52.134;5.052;2022-09-24T09:54:36;4.43;;;1.33;;
23115;SDS011;11727;52.134;5.052;2022-09-24T09:57:02;6.18;;;1.23;;
23115;SDS011;11727;52.134;5.052;2022-09-24T09:59:31;3.20;;;0.80;;
23115;SDS011;11727;52.134;5.052;2022-09-24T10:01:59;3.53;;;0.60;;
23115;SDS011;11727;52.134;5.052;2022-09-24T10:07:08;2.08;;;0.77;;
23115;SDS011;11727;52.134;5.052;2022-09-24T10:09:34;4.13;;;0.63;;
23115;SDS011;11727;52.134;5.052;2022-09-24T10:14:38;1.65;;;0.55;;
23115;SDS011;11727;52.134;5.052;2022-09-24T10:17:04;3.15;;;0.60;;
23115;SDS011;11727;52.134;5.052;2022-09-24T10:19:32;1.10;;;0.50;;
23115;SDS011;11727;52.134;5.052;2022-09-24T10:22:12;7.82;;;0.70;;
23115;SDS011;11727;52.134;5.052;2022-09-24T10:24:50;2.72;;;0.60;;
23115;SDS011;11727;52.134;5.052;2022-09-24T10:27:28;4.38;;;0.57;;
23115;SDS011;11727;52.134;5.052;2022-09-24T10:29:57;5.93;;;0.77;;
23115;SDS011;11727;52.134;5.052;2022-09-24T10:32:42;4.65;;;0.63;;
23115;SDS011;11727;52.134;5.052;2022-09-24T10:35:24;7.22;;;0.90;;
23115;SDS011;11727;52.134;5.052;2022-09-24T10:38:12;4.90;;;0.70;;
23115;SDS011;11727;52.134;5.052;2022-09-24T10:40:49;1.77;;;0.60;;
23115;SDS011;11727;52.134;5.052;2022-09-24T10:43:19;4.10;;;0.80;;
23115;SDS011;11727;52.134;5.052;2022-09-24T10:45:59;1.95;;;0.57;;
23115;SDS011;11727;52.134;5.052;2022-09-24T10:54:26;2.20;;;0.80;;
23115;SDS011;11727;52.134;5.052;2022-09-24T10:57:11;2.20;;;0.43;;
23115;SDS011;11727;52.134;5.052;2022-09-24T11:00:02;4.78;;;0.60;;
23115;SDS011;11727;52.134;5.052;2022-09-24T11:05:29;1.73;;;0.50;;
23115;SDS011;11727;52.134;5.052;2022-09-24T11:08:06;2.65;;;0.85;;
23115;SDS011;11727;52.134;5.052;2022-09-24T11:13:26;3.88;;;0.80;;
23115;SDS011;11727;52.134;5.052;2022-09-24T11:16:20;3.83;;;0.63;;
23115;SDS011;11727;52.134;5.052;2022-09-24T11:19:05;0.82;;;0.55;;
23115;SDS011;11727;52.134;5.052;2022-09-24T11:24:55;2.65;;;0.50;;
23115;SDS011;11727;52.134;5.052;2022-09-24T11:30:31;1.30;;;0.73;;
23115;SDS011;11727;52.134;5.052;2022-09-24T11:47:11;11.88;;;1.45;;
23115;SDS011;11727;52.134;5.052;2022-09-24T11:57:40;3.73;;;0.40;;
23115;SDS011;11727;52.134;5.052;2022-09-24T12:00:12;3.33;;;0.80;;
23115;SDS011;11727;52.134;5.052;2022-09-24T12:03:24;5.47;;;0.52;;
23115;SDS011;11727;52.134;5.052;2022-09-24T12:05:42;4.40;;;1.23;;
23115;SDS011;11727;52.134;5.052;2022-09-24T12:08:26;8.27;;;0.75;;
23115;SDS011;11727;52.134;5.052;2022-09-24T12:11:18;1.60;;;0.70;;
23115;SDS011;11727;52.134;5.052;2022-09-24T12:14:21;4.95;;;0.70;;
23115;SDS011;11727;52.134;5.052;2022-09-24T12:16:48;5.43;;;0.93;;
23115;SDS011;11727;52.134;5.052;2022-09-24T12:19:21;7.40;;;1.10;;
23115;SDS011;11727;52.134;5.052;2022-09-24T12:21:56;4.80;;;1.10;;
23115;SDS011;11727;52.134;5.052;2022-09-24T12:24:32;4.38;;;1.00;;
23115;SDS011;11727;52.134;5.052;2022-09-24T12:27:09;5.18;;;0.73;;
23115;SDS011;11727;52.134;5.052;2022-09-24T12:35:54;1.08;;;0.40;;
23115;SDS011;11727;52.134;5.052;2022-09-24T12:38:43;11.27;;;0.80;;
23115;SDS011;11727;52.134;5.052;2022-09-24T12:41:25;4.45;;;0.60;;
23115;SDS011;11727;52.134;5.052;2022-09-24T12:43:58;8.93;;;1.77;;
23115;SDS011;11727;52.134;5.052;2022-09-24T12:49:02;6.82;;;0.70;;
23115;SDS011;11727;52.134;5.052;2022-09-24T12:51:33;5.18;;;1.13;;
23115;SDS011;11727;52.134;5.052;2022-09-24T12:54:45;2.92;;;0.60;;
23115;SDS011;11727;52.134;5.052;2022-09-24T12:57:08;3.58;;;0.63;;
23115;SDS011;11727;52.134;5.052;2022-09-24T12:59:52;6.32;;;0.73;;
23115;SDS011;11727;52.134;5.052;2022-09-24T13:05:15;2.92;;;0.40;;
23115;SDS011;11727;52.134;5.052;2022-09-24T13:08:22;1.55;;;1.30;;
23115;SDS011;11727;52.134;5.052;2022-09-24T13:10:40;1.33;;;0.50;;
23115;SDS011;11727;52.134;5.052;2022-09-24T13:13:22;1.75;;;0.75;;
23115;SDS011;11727;52.134;5.052;2022-09-24T13:16:00;10.45;;;0.65;;
23115;SDS011;11727;52.134;5.052;2022-09-24T13:18:29;0.47;;;0.38;;
23115;SDS011;11727;52.134;5.052;2022-09-24T13:20:58;4.88;;;0.90;;
23115;SDS011;11727;52.134;5.052;2022-09-24T13:26:05;1.02;;;0.50;;
23115;SDS011;11727;52.134;5.052;2022-09-24T13:37:01;3.47;;;1.02;;
23115;SDS011;11727;52.134;5.052;2022-09-24T13:45:02;6.03;;;0.63;;
23115;SDS011;11727;52.134;5.052;2022-09-24T13:47:34;4.95;;;0.50;;
23115;SDS011;11727;52.134;5.052;2022-09-24T13:53:03;2.03;;;0.60;;
23115;SDS011;11727;52.134;5.052;2022-09-24T13:58:38;1.52;;;0.57;;
23115;SDS011;11727;52.134;5.052;2022-09-24T14:03:41;1.85;;;0.30;;
23115;SDS011;11727;52.134;5.052;2022-09-24T14:06:17;3.83;;;0.45;;
23115;SDS011;11727;52.134;5.052;2022-09-24T14:08:47;1.75;;;0.30;;
23115;SDS011;11727;52.134;5.052;2022-09-24T14:11:14;2.70;;;0.68;;
23115;SDS011;11727;52.134;5.052;2022-09-24T14:13:44;1.63;;;0.32;;
23115;SDS011;11727;52.134;5.052;2022-09-24T14:16:17;2.17;;;0.43;;
23115;SDS011;11727;52.134;5.052;2022-09-24T14:18:44;2.58;;;0.50;;
23115;SDS011;11727;52.134;5.052;2022-09-24T14:23:57;1.00;;;0.60;;
23115;SDS011;11727;52.134;5.052;2022-09-24T14:26:30;1.92;;;0.40;;
23115;SDS011;11727;52.134;5.052;2022-09-24T14:29:05;2.78;;;0.52;;
23115;SDS011;11727;52.134;5.052;2022-09-24T14:31:47;3.88;;;0.35;;
23115;SDS011;11727;52.134;5.052;2022-09-24T14:34:39;0.57;;;0.32;;
23115;SDS011;11727;52.134;5.052;2022-09-24T14:37:10;1.45;;;0.32;;
23115;SDS011;11727;52.134;5.052;2022-09-24T14:39:42;6.43;;;0.43;;
23115;SDS011;11727;52.134;5.052;2022-09-24T14:42:19;1.30;;;0.50;;
23115;SDS011;11727;52.134;5.052;2022-09-24T14:44:51;1.88;;;0.45;;
23115;SDS011;11727;52.134;5.052;2022-09-24T14:47:23;5.33;;;0.50;;
23115;SDS011;11727;52.134;5.052;2022-09-24T14:49:53;2.95;;;0.40;;
23115;SDS011;11727;52.134;5.052;2022-09-24T14:52:30;5.28;;;0.80;;
23115;SDS011;11727;52.134;5.052;2022-09-24T14:57:36;3.45;;;0.75;;
23115;SDS011;11727;52.134;5.052;2022-09-24T15:00:17;2.80;;;0.50;;
23115;SDS011;11727;52.134;5.052;2022-09-24T15:02:46;6.03;;;0.80;;
23115;SDS011;11727;52.134;5.052;2022-09-24T15:05:44;0.45;;;0.30;;
23115;SDS011;11727;52.134;5.052;2022-09-24T15:08:30;1.45;;;0.43;;
23115;SDS011;11727;52.134;5.052;2022-09-24T15:11:02;1.45;;;0.30;;
23115;SDS011;11727;52.134;5.052;2022-09-24T15:13:32;1.30;;;0.52;;
23115;SDS011;11727;52.134;5.052;2022-09-24T15:16:27;1.70;;;0.75;;
23115;SDS011;11727;52.134;5.052;2022-09-24T15:19:25;3.30;;;0.88;;
23115;SDS011;11727;52.134;5.052;2022-09-24T15:21:48;1.05;;;0.30;;
23115;SDS011;11727;52.134;5.052;2022-09-24T15:24:16;3.55;;;0.63;;
23115;SDS011;11727;52.134;5.052;2022-09-24T15:26:48;0.90;;;0.20;;
23115;SDS011;11727;52.134;5.052;2022-09-24T15:29:24;4.25;;;0.45;;
23115;SDS011;11727;52.134;5.052;2022-09-24T15:31:51;0.30;;;0.30;;
23115;SDS011;11727;52.134;5.052;2022-09-24T15:34:17;2.90;;;0.22;;
23115;SDS011;11727;52.134;5.052;2022-09-24T15:36:44;1.50;;;0.50;;
23115;SDS011;11727;52.134;5.052;2022-09-24T15:39:12;3.13;;;0.50;;
23115;SDS011;11727;52.134;5.052;2022-09-24T15:41:38;0.65;;;0.25;;
23115;SDS011;11727;52.134;5.052;2022-09-24T15:44:04;4.32;;;0.30;;
23115;SDS011;11727;52.134;5.052;2022-09-24T15:46:30;0.30;;;0.30;;
23115;SDS011;11727;52.134;5.052;2022-09-24T15:48:55;1.67;;;0.40;;
23115;SDS011;11727;52.134;5.052;2022-09-24T15:51:21;2.08;;;0.55;;
23115;SDS011;11727;52.134;5.052;2022-09-24T15:53:47;2.47;;;0.57;;
23115;SDS011;11727;52.134;5.052;2022-09-24T15:56:14;3.25;;;0.60;;
23115;SDS011;11727;52.134;5.052;2022-09-24T15:58:40;0.55;;;0.30;;
23115;SDS011;11727;52.134;5.052;2022-09-24T16:01:06;0.85;;;0.30;;
23115;SDS011;11727;52.134;5.052;2022-09-24T16:03:37;3.22;;;0.45;;
23115;SDS011;11727;52.134;5.052;2022-09-24T16:06:04;0.90;;;0.33;;
23115;SDS011;11727;52.134;5.052;2022-09-24T16:08:30;1.38;;;0.28;;
23115;SDS011;11727;52.134;5.052;2022-09-24T16:10:55;1.88;;;0.30;;
23115;SDS011;11727;52.134;5.052;2022-09-24T16:13:22;7.22;;;0.70;;
23115;SDS011;11727;52.134;5.052;2022-09-24T16:15:47;0.93;;;0.25;;
23115;SDS011;11727;52.134;5.052;2022-09-24T16:18:14;4.38;;;0.50;;
23115;SDS011;11727;52.134;5.052;2022-09-24T16:20:41;0.73;;;0.30;;
23115;SDS011;11727;52.134;5.052;2022-09-24T16:23:13;4.43;;;0.30;;
23115;SDS011;11727;52.134;5.052;2022-09-24T16:25:56;1.55;;;0.43;;
23115;SDS011;11727;52.134;5.052;2022-09-24T16:28:23;1.60;;;0.40;;
23115;SDS011;11727;52.134;5.052;2022-09-24T16:30:49;2.33;;;0.25;;
23115;SDS011;11727;52.134;5.052;2022-09-24T16:33:15;3.22;;;0.45;;
23115;SDS011;11727;52.134;5.052;2022-09-24T16:35:41;1.38;;;0.28;;
23115;SDS011;11727;52.134;5.052;2022-09-24T16:38:06;2.83;;;0.57;;
23115;SDS011;11727;52.134;5.052;2022-09-24T16:40:32;4.43;;;0.68;;
23115;SDS011;11727;52.134;5.052;2022-09-24T16:42:58;1.38;;;0.35;;
23115;SDS011;11727;52.134;5.052;2022-09-24T16:45:24;2.22;;;0.45;;
23115;SDS011;11727;52.134;5.052;2022-09-24T16:47:49;5.70;;;0.60;;
23115;SDS011;11727;52.134;5.052;2022-09-24T16:50:15;0.40;;;0.30;;
23115;SDS011;11727;52.134;5.052;2022-09-24T16:52:40;3.58;;;0.60;;
23115;SDS011;11727;52.134;5.052;2022-09-24T16:57:35;3.67;;;0.60;;
23115;SDS011;11727;52.134;5.052;2022-09-24T17:00:02;1.43;;;0.43;;
23115;SDS011;11727;52.134;5.052;2022-09-24T17:02:31;1.88;;;0.55;;
23115;SDS011;11727;52.134;5.052;2022-09-24T17:04:57;0.85;;;0.30;;
23115;SDS011;11727;52.134;5.052;2022-09-24T17:07:22;4.57;;;0.43;;
23115;SDS011;11727;52.134;5.052;2022-09-24T17:09:48;0.55;;;0.30;;
23115;SDS011;11727;52.134;5.052;2022-09-24T17:12:32;4.45;;;0.30;;
23115;SDS011;11727;52.134;5.052;2022-09-24T17:14:58;1.17;;;0.70;;
23115;SDS011;11727;52.134;5.052;2022-09-24T17:17:25;2.40;;;0.40;;
23115;SDS011;11727;52.134;5.052;2022-09-24T17:19:52;0.55;;;0.20;;